createdAt,value
2018-05-14T00:01:16.895Z,15.80
2018-05-14T00:03:45.186Z,15.90
2018-05-14T00:06:14.112Z,15.90
2018-05-14T00:08:43.086Z,15.90
2018-05-14T00:11:11.326Z,15.80
2018-05-14T00:13:39.562Z,15.90
2018-05-14T00:16:07.904Z,16.00
2018-05-14T00:18:36.095Z,15.90
2018-05-14T00:21:05.085Z,15.90
2018-05-14T00:23:34.077Z,16.00
2018-05-14T00:26:03.084Z,15.90
2018-05-14T00:28:32.082Z,15.90
2018-05-14T00:31:00.328Z,15.90
2018-05-14T00:33:28.526Z,15.90
2018-05-14T00:35:57.509Z,15.90
2018-05-14T00:38:25.890Z,15.90
2018-05-14T00:40:54.869Z,15.90
2018-05-14T00:43:23.117Z,15.90
2018-05-14T00:45:51.335Z,15.90
2018-05-14T00:48:20.334Z,15.90
2018-05-14T00:50:49.323Z,15.90
2018-05-14T00:53:18.300Z,15.80
2018-05-14T00:55:46.541Z,15.80
2018-05-14T00:58:14.750Z,15.90
2018-05-14T01:00:42.984Z,15.80
2018-05-14T01:03:11.201Z,15.70
2018-05-14T01:05:39.410Z,15.80
2018-05-14T01:08:07.650Z,15.80
2018-05-14T01:10:35.918Z,15.80
2018-05-14T01:13:04.132Z,15.70
2018-05-14T01:15:32.355Z,15.70
2018-05-14T01:18:00.582Z,15.70
2018-05-14T01:20:28.817Z,15.70
2018-05-14T01:22:57.030Z,15.70
2018-05-14T01:25:25.341Z,15.80
2018-05-14T01:27:53.579Z,15.70
2018-05-14T01:30:21.815Z,15.70
2018-05-14T01:32:50.025Z,15.70
2018-05-14T01:35:19.025Z,15.70
2018-05-14T01:37:47.234Z,15.70
2018-05-14T01:40:15.493Z,15.70
2018-05-14T01:42:43.701Z,15.60
2018-05-14T01:45:11.934Z,15.50
2018-05-14T01:47:40.182Z,15.60
2018-05-14T01:50:08.408Z,15.70
2018-05-14T01:52:36.667Z,15.60
2018-05-14T01:55:05.623Z,15.70
2018-05-14T01:57:34.613Z,15.70
2018-05-14T02:00:02.889Z,15.70
2018-05-14T02:02:31.113Z,15.70
2018-05-14T02:04:59.338Z,15.60
2018-05-14T02:07:27.643Z,15.60
2018-05-14T02:09:55.854Z,15.60
2018-05-14T02:12:24.061Z,15.60
2018-05-14T02:14:52.294Z,15.60
2018-05-14T02:17:20.521Z,15.60
2018-05-14T02:19:48.742Z,15.60
2018-05-14T02:22:16.951Z,15.60
2018-05-14T02:24:45.167Z,15.70
2018-05-14T02:27:14.167Z,15.70
2018-05-14T02:29:42.406Z,15.70
2018-05-14T02:32:10.760Z,15.70
2018-05-14T02:34:38.982Z,15.60
2018-05-14T02:37:07.975Z,15.60
2018-05-14T02:39:36.201Z,15.60
2018-05-14T02:42:04.457Z,15.70
2018-05-14T02:44:32.686Z,15.70
2018-05-14T02:47:00.901Z,15.70
2018-05-14T02:49:29.172Z,15.60
2018-05-14T02:51:57.456Z,15.70
2018-05-14T02:54:25.696Z,15.70
2018-05-14T02:56:54.683Z,15.50
2018-05-14T02:59:23.670Z,15.50
2018-05-14T03:01:52.664Z,15.40
2018-05-14T03:04:20.886Z,15.40
2018-05-14T03:06:49.114Z,15.40
2018-05-14T03:09:17.362Z,15.30
2018-05-14T03:11:45.580Z,15.30
2018-05-14T03:14:14.568Z,15.40
2018-05-14T03:16:42.827Z,15.40
2018-05-14T03:19:11.045Z,15.40
2018-05-14T03:21:39.286Z,15.30
2018-05-14T03:24:08.288Z,15.40
2018-05-14T03:26:36.508Z,15.30
2018-05-14T03:29:04.713Z,15.40
2018-05-14T03:31:33.138Z,15.40
2018-05-14T03:34:01.340Z,15.40
2018-05-14T03:36:29.566Z,15.40
2018-05-14T03:38:57.846Z,15.30
2018-05-14T03:41:26.887Z,15.40
2018-05-14T03:43:55.095Z,15.40
2018-05-14T03:46:23.313Z,15.30
2018-05-14T03:48:51.550Z,15.40
2018-05-14T03:51:19.766Z,15.40
2018-05-14T03:53:48.002Z,15.40
2018-05-14T03:56:16.210Z,15.40
2018-05-14T03:58:56.314Z,15.40
2018-05-14T04:01:36.383Z,15.40
2018-05-14T04:04:16.532Z,15.30
2018-05-14T04:06:44.774Z,15.30
2018-05-14T04:09:13.014Z,15.30
2018-05-14T04:11:41.990Z,15.40
2018-05-14T04:14:10.209Z,15.40
2018-05-14T04:16:38.505Z,15.40
2018-05-14T04:19:06.658Z,15.40
2018-05-14T04:21:34.959Z,15.30
2018-05-14T04:24:03.189Z,15.30
2018-05-14T04:26:31.415Z,15.30
2018-05-14T04:28:59.641Z,15.30
2018-05-14T04:31:27.862Z,15.30
2018-05-14T04:33:56.087Z,15.20
2018-05-14T04:36:24.298Z,15.10
2018-05-14T04:38:52.537Z,15.10
2018-05-14T04:41:20.784Z,15.20
2018-05-14T04:43:49.017Z,15.20
2018-05-14T04:46:17.240Z,15.10
2018-05-14T04:48:45.453Z,15.30
2018-05-14T04:51:13.662Z,15.30
2018-05-14T04:53:41.894Z,15.30
2018-05-14T04:56:10.110Z,15.30
2018-05-14T04:58:38.490Z,15.30
2018-05-14T05:01:06.715Z,15.30
2018-05-14T05:03:35.703Z,15.40
2018-05-14T05:06:03.928Z,15.40
2018-05-14T05:08:32.139Z,15.40
2018-05-14T05:11:00.362Z,15.30
2018-05-14T05:13:28.602Z,15.30
2018-05-14T05:15:56.826Z,15.40
2018-05-14T05:18:25.051Z,15.40
2018-05-14T05:20:54.046Z,15.30
2018-05-14T05:23:23.037Z,15.20
2018-05-14T05:25:52.028Z,15.20
2018-05-14T05:28:21.085Z,15.20
2018-05-14T05:30:49.268Z,15.20
2018-05-14T05:33:17.483Z,15.20
2018-05-14T05:35:45.702Z,15.20
2018-05-14T05:38:13.923Z,15.30
2018-05-14T05:40:42.919Z,15.30
2018-05-14T05:43:12.477Z,15.30
2018-05-14T05:45:40.871Z,15.30
2018-05-14T05:48:09.055Z,15.20
2018-05-14T05:50:37.575Z,15.20
2018-05-14T05:53:06.119Z,15.00
2018-05-14T05:55:34.339Z,15.10
2018-05-14T05:58:02.545Z,15.20
2018-05-14T06:00:30.810Z,15.30
2018-05-14T06:02:59.045Z,15.40
2018-05-14T06:05:28.028Z,15.70
2018-05-14T06:07:57.025Z,15.70
2018-05-14T06:10:26.008Z,15.60
2018-05-14T06:12:54.228Z,15.60
2018-05-14T06:15:22.605Z,15.60
2018-05-14T06:17:50.798Z,15.70
2018-05-14T06:20:19.018Z,15.70
2018-05-14T06:22:48.011Z,15.80
2018-05-14T06:25:17.019Z,15.90
2018-05-14T06:30:19.837Z,15.90
2018-05-14T06:32:48.065Z,16.00
2018-05-14T06:35:16.290Z,16.00
2018-05-14T06:37:44.552Z,16.00
2018-05-14T06:40:12.791Z,16.00
2018-05-14T06:42:41.019Z,16.00
2018-05-14T06:45:09.252Z,16.00
2018-05-14T06:47:38.248Z,16.00
2018-05-14T06:50:07.236Z,16.00
2018-05-14T06:52:36.223Z,15.90
2018-05-14T06:55:04.500Z,15.90
2018-05-14T06:57:33.429Z,16.10
2018-05-14T07:00:02.548Z,16.00
2018-05-14T07:02:31.488Z,16.10
2018-05-14T07:05:00.471Z,16.10
2018-05-14T07:07:28.687Z,16.00
2018-05-14T07:09:56.902Z,15.90
2018-05-14T07:12:25.136Z,15.80
2018-05-14T07:14:53.353Z,15.70
2018-05-14T07:17:21.585Z,15.80
2018-05-14T07:19:49.810Z,15.90
2018-05-14T07:22:18.035Z,15.90
2018-05-14T07:24:46.318Z,16.00
2018-05-14T07:27:14.470Z,15.90
2018-05-14T07:29:42.711Z,16.00
2018-05-14T07:32:10.922Z,15.90
2018-05-14T07:34:39.139Z,15.80
2018-05-14T07:37:07.349Z,15.80
2018-05-14T07:39:35.574Z,15.70
2018-05-14T07:42:03.781Z,15.70
2018-05-14T07:44:31.994Z,15.60
2018-05-14T07:47:00.219Z,15.70
2018-05-14T07:49:28.443Z,15.80
2018-05-14T07:51:57.450Z,15.70
2018-05-14T07:54:25.702Z,15.70
2018-05-14T07:56:53.899Z,15.70
2018-05-14T07:59:22.118Z,15.70
2018-05-14T08:01:50.341Z,15.70
2018-05-14T08:04:19.354Z,15.90
2018-05-14T08:06:47.641Z,15.90
2018-05-14T08:09:15.857Z,15.90
2018-05-14T08:11:44.132Z,15.90
2018-05-14T08:14:12.331Z,15.90
2018-05-14T08:16:40.515Z,15.90
2018-05-14T08:19:08.761Z,15.70
2018-05-14T08:21:36.978Z,15.70
2018-05-14T08:24:05.205Z,15.50
2018-05-14T08:26:33.422Z,15.60
2018-05-14T08:29:01.634Z,15.70
2018-05-14T08:31:29.888Z,15.70
2018-05-14T08:33:58.081Z,15.70
2018-05-14T08:36:26.317Z,15.80
2018-05-14T08:38:54.526Z,15.80
2018-05-14T08:41:22.752Z,15.80
2018-05-14T08:43:51.026Z,15.70
2018-05-14T08:46:20.019Z,15.90
2018-05-14T08:48:49.090Z,15.90
2018-05-14T08:51:17.283Z,15.90
2018-05-14T08:53:45.526Z,15.90
2018-05-14T08:56:13.818Z,15.90
2018-05-14T08:58:42.051Z,15.80
2018-05-14T09:01:10.275Z,15.80
2018-05-14T09:03:38.502Z,15.80
2018-05-14T09:06:06.740Z,15.80
2018-05-14T09:08:35.734Z,16.00
2018-05-14T09:11:04.716Z,16.20
2018-05-14T09:13:33.706Z,16.20
2018-05-14T09:16:02.730Z,16.20
2018-05-14T09:18:30.978Z,16.10
2018-05-14T09:20:59.206Z,16.10
2018-05-14T09:23:27.423Z,16.00
2018-05-14T09:25:55.653Z,15.90
2018-05-14T09:28:23.874Z,16.00
2018-05-14T09:30:52.262Z,15.90
2018-05-14T09:33:20.474Z,16.00
2018-05-14T09:35:48.707Z,15.90
2018-05-14T09:38:17.732Z,15.80
2018-05-14T09:40:46.702Z,15.80
2018-05-14T09:43:15.696Z,15.80
2018-05-14T09:45:44.694Z,15.70
2018-05-14T09:48:13.676Z,15.80
2018-05-14T09:50:42.697Z,15.90
2018-05-14T09:53:10.926Z,15.90
2018-05-14T09:55:39.365Z,15.90
2018-05-14T09:58:07.579Z,15.90
2018-05-14T10:00:35.994Z,16.00
2018-05-14T10:03:04.027Z,16.00
2018-05-14T10:05:32.256Z,16.10
2018-05-14T10:08:00.481Z,16.10
2018-05-14T10:10:28.760Z,16.30
2018-05-14T10:12:57.043Z,16.30
2018-05-14T10:15:25.267Z,16.40
2018-05-14T10:17:53.653Z,16.40
2018-05-14T10:20:21.877Z,16.30
2018-05-14T10:22:50.881Z,16.20
2018-05-14T10:25:19.890Z,16.00
2018-05-14T10:27:48.142Z,16.00
2018-05-14T10:30:17.134Z,16.20
2018-05-14T10:32:46.133Z,16.30
2018-05-14T10:35:15.135Z,16.40
2018-05-14T10:37:44.135Z,16.30
2018-05-14T10:40:12.371Z,16.30
2018-05-14T10:42:40.595Z,16.50
2018-05-14T10:45:08.864Z,16.60
2018-05-14T10:47:37.858Z,16.50
2018-05-14T10:50:06.867Z,16.70
2018-05-14T10:52:35.835Z,16.70
2018-05-14T10:55:04.829Z,16.60
2018-05-14T10:57:33.858Z,16.60
2018-05-14T11:00:02.098Z,16.50
2018-05-14T11:02:30.331Z,16.50
2018-05-14T11:04:58.551Z,16.50
2018-05-14T11:07:28.134Z,16.50
2018-05-14T11:09:57.161Z,16.50
2018-05-14T11:12:25.426Z,16.50
2018-05-14T11:14:54.538Z,16.50
2018-05-14T11:17:22.755Z,16.40
2018-05-14T11:19:50.988Z,16.50
2018-05-14T11:22:19.951Z,16.50
2018-05-14T11:24:48.965Z,16.60
2018-05-14T11:27:17.933Z,16.50
2018-05-14T11:29:46.948Z,16.70
2018-05-14T11:32:15.931Z,16.70
2018-05-14T11:34:44.922Z,16.60
2018-05-14T11:37:13.939Z,16.70
2018-05-14T11:39:42.906Z,16.80
2018-05-14T11:42:11.966Z,16.80
2018-05-14T11:44:40.141Z,16.80
2018-05-14T11:47:08.357Z,16.90
2018-05-14T11:49:37.426Z,17.00
2018-05-14T11:52:06.344Z,17.00
2018-05-14T11:54:35.333Z,17.20
2018-05-14T11:57:04.318Z,17.20
2018-05-14T11:59:33.362Z,17.20
2018-05-14T12:02:01.592Z,17.20
2018-05-14T12:04:30.570Z,17.20
2018-05-14T12:06:58.819Z,17.20
2018-05-14T12:09:27.035Z,17.20
2018-05-14T12:11:56.208Z,17.00
2018-05-14T12:14:25.168Z,16.80
2018-05-14T12:16:53.390Z,16.80
2018-05-14T12:19:22.380Z,17.00
2018-05-14T12:21:50.614Z,16.90
2018-05-14T12:24:18.828Z,16.90
2018-05-14T12:26:47.066Z,16.80
2018-05-14T12:29:15.292Z,16.80
2018-05-14T12:31:43.510Z,16.80
2018-05-14T12:34:11.735Z,16.80
2018-05-14T12:36:40.730Z,17.00
2018-05-14T12:39:09.707Z,17.00
2018-05-14T12:41:37.947Z,17.00
2018-05-14T12:44:06.170Z,16.90
2018-05-14T12:46:34.410Z,17.00
2018-05-14T12:49:02.625Z,17.00
2018-05-14T12:51:31.616Z,17.10
2018-05-14T12:54:00.285Z,17.10
2018-05-14T12:56:28.529Z,17.20
2018-05-14T12:58:56.892Z,17.20
2018-05-14T13:01:25.129Z,17.20
2018-05-14T13:03:53.553Z,17.30
2018-05-14T13:06:21.919Z,17.50
2018-05-14T13:08:50.151Z,17.40
2018-05-14T13:11:18.417Z,17.40
2018-05-14T13:13:46.637Z,17.30
2018-05-14T13:16:15.609Z,17.30
2018-05-14T13:18:44.602Z,17.20
2018-05-14T13:21:13.610Z,17.30
2018-05-14T13:23:42.640Z,17.30
2018-05-14T13:26:10.946Z,17.20
2018-05-14T13:28:39.091Z,17.20
2018-05-14T13:31:07.333Z,17.20
2018-05-14T13:33:36.340Z,17.00
2018-05-14T13:36:04.554Z,17.00
2018-05-14T13:38:33.546Z,17.20
2018-05-14T13:41:01.802Z,17.20
2018-05-14T13:43:30.042Z,17.40
2018-05-14T13:45:59.038Z,17.30
2018-05-14T13:48:28.019Z,17.40
2018-05-14T13:50:57.093Z,17.40
2018-05-14T13:53:26.020Z,17.20
2018-05-14T13:55:55.059Z,17.10
2018-05-14T13:58:23.303Z,17.10
2018-05-14T14:00:51.508Z,17.20
2018-05-14T14:03:19.750Z,17.20
2018-05-14T14:05:48.005Z,17.20
2018-05-14T14:08:17.007Z,17.10
2018-05-14T14:10:45.233Z,17.10
2018-05-14T14:13:13.457Z,17.20
2018-05-14T14:15:41.707Z,17.10
2018-05-14T14:18:09.933Z,17.10
2018-05-14T14:20:38.186Z,17.10
2018-05-14T14:23:06.432Z,17.10
2018-05-14T14:25:34.648Z,17.20
2018-05-14T14:28:02.866Z,17.40
2018-05-14T14:30:31.190Z,17.40
2018-05-14T14:33:01.125Z,17.40
2018-05-14T14:35:30.178Z,17.60
2018-05-14T14:37:59.180Z,17.60
2018-05-14T14:40:28.064Z,17.60
2018-05-14T14:42:56.670Z,17.40
2018-05-14T14:45:25.638Z,17.50
2018-05-14T14:47:55.853Z,17.60
2018-05-14T14:50:24.091Z,17.60
2018-05-14T14:52:52.296Z,17.60
2018-05-14T14:55:20.645Z,17.70
2018-05-14T14:57:48.868Z,17.70
2018-05-14T15:00:17.865Z,17.60
2018-05-14T15:02:46.860Z,17.50
2018-05-14T15:05:15.843Z,17.60
2018-05-14T15:07:44.878Z,17.60
2018-05-14T15:10:13.846Z,17.60
2018-05-14T15:12:43.899Z,17.40
2018-05-14T15:15:12.142Z,17.40
2018-05-14T15:17:40.413Z,17.50
2018-05-14T15:20:09.484Z,17.40
2018-05-14T15:22:37.656Z,17.40
2018-05-14T15:25:05.875Z,17.30
2018-05-14T15:27:34.131Z,17.30
2018-05-14T15:30:03.171Z,17.30
2018-05-14T15:32:31.351Z,17.30
2018-05-14T15:34:59.639Z,17.10
2018-05-14T15:37:27.862Z,17.10
2018-05-14T15:39:56.094Z,17.10
2018-05-14T15:42:24.442Z,17.20
2018-05-14T15:44:52.668Z,17.20
2018-05-14T15:47:21.674Z,17.10
2018-05-14T15:49:49.987Z,17.10
2018-05-14T15:52:18.160Z,17.10
2018-05-14T15:54:46.374Z,17.00
2018-05-14T15:57:14.608Z,17.00
2018-05-14T15:59:42.855Z,17.10
2018-05-14T16:02:11.090Z,17.10
2018-05-14T16:04:39.310Z,17.10
2018-05-14T16:07:07.630Z,17.10
2018-05-14T16:09:35.866Z,17.20
2018-05-14T16:12:04.136Z,17.20
2018-05-14T16:14:32.413Z,17.10
2018-05-14T16:17:00.605Z,17.00
2018-05-14T16:19:28.842Z,16.90
2018-05-14T16:21:57.083Z,16.80
2018-05-14T16:24:25.311Z,16.70
2018-05-14T16:26:53.547Z,16.70
2018-05-14T16:29:21.769Z,16.60
2018-05-14T16:31:49.998Z,16.60
2018-05-14T16:34:18.245Z,16.60
2018-05-14T16:36:46.462Z,16.50
2018-05-14T16:39:14.749Z,16.40
2018-05-14T16:41:43.976Z,16.30
2018-05-14T16:44:13.906Z,16.30
2018-05-14T16:46:42.343Z,16.20
2018-05-14T16:49:10.632Z,16.20
2018-05-14T16:51:38.908Z,16.30
2018-05-14T16:54:07.122Z,16.30
2018-05-14T16:56:35.354Z,16.30
2018-05-14T16:59:03.571Z,16.30
2018-05-14T17:01:31.835Z,16.30
2018-05-14T17:04:00.051Z,16.40
2018-05-14T17:06:28.287Z,16.60
2018-05-14T17:08:56.531Z,16.70
2018-05-14T17:11:24.771Z,16.80
2018-05-14T17:13:53.023Z,16.90
2018-05-14T17:16:21.303Z,16.80
2018-05-14T17:18:49.576Z,16.90
2018-05-14T17:21:18.586Z,16.90
2018-05-14T17:23:46.826Z,16.80
2018-05-14T17:26:15.047Z,16.90
2018-05-14T17:28:43.299Z,16.90
2018-05-14T17:31:11.916Z,16.90
2018-05-14T17:33:43.788Z,16.90
2018-05-14T17:36:12.246Z,16.90
2018-05-14T17:38:40.454Z,16.90
2018-05-14T17:41:09.692Z,16.90
2018-05-14T17:43:38.025Z,16.90
2018-05-14T17:46:06.238Z,16.90
2018-05-14T17:51:09.098Z,16.90
2018-05-14T17:53:38.103Z,16.90
2018-05-14T17:56:07.125Z,16.90
2018-05-14T17:58:35.367Z,16.90
2018-05-14T18:01:04.384Z,16.90
2018-05-14T18:03:32.618Z,16.90
2018-05-14T18:06:00.912Z,16.90
2018-05-14T18:08:29.899Z,16.70
2018-05-14T18:10:58.320Z,16.70
2018-05-14T18:13:26.427Z,16.80
2018-05-14T18:15:54.639Z,16.70
2018-05-14T18:18:23.675Z,16.80
2018-05-14T18:20:51.913Z,16.80
2018-05-14T18:23:23.986Z,16.80
2018-05-14T18:29:05.285Z,16.80
2018-05-14T18:31:33.549Z,16.70
2018-05-14T18:34:07.432Z,16.70
2018-05-14T18:36:35.666Z,16.70
2018-05-14T18:39:06.702Z,16.60
2018-05-14T18:41:34.884Z,16.50
2018-05-14T18:44:03.297Z,16.50
2018-05-14T18:46:31.569Z,16.50
2018-05-14T18:48:59.750Z,16.30
2018-05-14T18:51:27.970Z,16.20
2018-05-14T18:53:56.245Z,16.30
2018-05-14T18:56:24.466Z,16.30
2018-05-14T18:58:52.721Z,16.40
2018-05-14T19:01:20.963Z,16.40
2018-05-14T19:03:49.206Z,16.40
2018-05-14T19:06:17.448Z,16.50
2018-05-14T19:08:45.692Z,16.50
2018-05-14T19:11:28.824Z,16.50
2018-05-14T19:13:57.050Z,16.50
2018-05-14T19:16:30.809Z,16.50
2018-05-14T19:18:59.080Z,16.40
2018-05-14T19:21:27.316Z,16.30
2018-05-14T19:23:55.641Z,16.30
2018-05-14T19:26:23.786Z,16.30
2018-05-14T19:28:58.442Z,16.10
2018-05-14T19:31:26.688Z,16.10
2018-05-14T19:34:01.265Z,15.80
2018-05-14T19:36:29.660Z,15.80
2018-05-14T19:38:57.880Z,15.80
2018-05-14T19:41:26.126Z,15.90
2018-05-14T19:43:54.355Z,16.10
2018-05-14T19:46:22.591Z,16.20
2018-05-14T19:48:51.576Z,16.40
2018-05-14T19:51:20.007Z,16.40
2018-05-14T19:53:48.252Z,16.50
2018-05-14T19:56:17.229Z,16.50
2018-05-14T19:58:46.234Z,16.30
2018-05-14T20:01:14.772Z,16.30
2018-05-14T20:03:43.807Z,16.40
2018-05-14T20:06:12.066Z,16.40
2018-05-14T20:08:40.388Z,16.40
2018-05-14T20:11:08.594Z,16.40
2018-05-14T20:13:36.839Z,16.50
2018-05-14T20:16:05.062Z,16.70
2018-05-14T20:18:34.355Z,16.80
2018-05-14T20:21:02.659Z,17.00
2018-05-14T20:23:31.666Z,17.20
2018-05-14T20:25:59.930Z,17.20
2018-05-14T20:28:28.928Z,17.20
2018-05-14T20:30:57.167Z,17.20
2018-05-14T20:33:25.381Z,17.20
2018-05-14T20:35:53.649Z,17.20
2018-05-14T20:38:22.631Z,17.20
2018-05-14T20:40:50.880Z,17.20
2018-05-14T20:43:19.130Z,17.10
2018-05-14T20:45:47.362Z,17.10
2018-05-14T20:48:16.384Z,17.10
2018-05-14T20:50:44.627Z,17.10
2018-05-14T20:53:13.635Z,17.10
2018-05-14T20:55:41.897Z,17.00
2018-05-14T20:58:10.097Z,17.00
2018-05-14T21:00:38.321Z,16.90
2018-05-14T21:03:06.599Z,16.90
2018-05-14T21:05:34.823Z,16.80
2018-05-14T21:08:03.077Z,16.80
2018-05-14T21:10:31.292Z,16.80
2018-05-14T21:12:59.525Z,16.80
2018-05-14T21:15:28.551Z,16.70
2018-05-14T21:17:56.777Z,16.70
2018-05-14T21:20:25.021Z,16.70
2018-05-14T21:22:53.246Z,16.70
2018-05-14T21:25:21.519Z,16.70
2018-05-14T21:27:49.992Z,16.60
2018-05-14T21:30:18.198Z,16.60
2018-05-14T21:32:46.451Z,16.50
2018-05-14T21:35:15.451Z,16.50
2018-05-14T21:37:44.551Z,16.50
2018-05-14T21:40:12.708Z,16.50
2018-05-14T21:42:40.907Z,16.40
2018-05-14T21:45:09.998Z,16.40
2018-05-14T21:47:38.229Z,16.40
2018-05-14T21:50:06.458Z,16.30
2018-05-14T21:52:34.699Z,16.40
2018-05-14T21:55:02.970Z,16.30
2018-05-14T21:57:31.211Z,16.40
2018-05-14T21:59:59.448Z,16.40
2018-05-14T22:02:28.500Z,16.30
2018-05-14T22:04:56.733Z,16.30
2018-05-14T22:07:25.007Z,16.20
2018-05-14T22:09:53.251Z,16.20
2018-05-14T22:12:22.757Z,16.20
2018-05-14T22:14:50.991Z,16.20
2018-05-14T22:17:19.215Z,16.30
2018-05-14T22:19:47.462Z,16.30
2018-05-14T22:22:15.836Z,16.40
2018-05-14T22:24:44.367Z,16.40
2018-05-14T22:27:12.592Z,16.40
2018-05-14T22:29:40.856Z,16.40
2018-05-14T22:32:09.099Z,16.30
2018-05-14T22:34:37.382Z,16.30
2018-05-14T22:37:05.603Z,16.30
2018-05-14T22:39:33.858Z,16.30
2018-05-14T22:42:02.369Z,16.30
2018-05-14T22:44:30.859Z,16.30
2018-05-14T22:46:59.437Z,16.30
2018-05-14T22:49:27.791Z,16.10
2018-05-14T22:51:56.090Z,16.10
2018-05-14T22:54:36.379Z,15.90
2018-05-14T22:57:05.382Z,16.10
2018-05-14T22:59:33.654Z,16.00
2018-05-14T23:02:02.180Z,16.10
2018-05-14T23:04:30.402Z,16.20
2018-05-14T23:06:58.803Z,16.20
2018-05-14T23:09:27.047Z,16.20
2018-05-14T23:11:55.440Z,16.20
2018-05-14T23:14:23.986Z,16.20
2018-05-14T23:16:52.246Z,16.20
2018-05-14T23:19:20.748Z,16.20
2018-05-14T23:21:49.142Z,16.20
2018-05-14T23:24:18.132Z,16.10
2018-05-14T23:26:46.520Z,16.10
2018-05-14T23:29:14.758Z,16.20
2018-05-14T23:31:43.054Z,16.10
2018-05-14T23:34:11.285Z,16.10
2018-05-14T23:36:39.670Z,16.10
2018-05-14T23:39:07.899Z,16.10
2018-05-14T23:41:36.131Z,16.10
2018-05-14T23:44:04.378Z,16.00
2018-05-14T23:46:32.603Z,16.00
2018-05-14T23:49:00.831Z,15.90
2018-05-14T23:51:29.057Z,16.00
2018-05-14T23:53:57.278Z,16.00
2018-05-14T23:56:25.670Z,16.00
2018-05-14T23:58:53.902Z,16.00
